sensor_id;sensor_type;location;lat;lon;timestamp;P1;durP1;ratioP1;P2;durP2;ratioP2
13793;SDS011;31160;49.500;7.772;2022-12-18T00:01:21;29.15;;;12.93;;
13793;SDS011;31160;49.500;7.772;2022-12-18T00:03:49;30.13;;;13.55;;
13793;SDS011;31160;49.500;7.772;2022-12-18T00:06:17;28.63;;;12.07;;
13793;SDS011;31160;49.500;7.772;2022-12-18T00:08:45;25.13;;;12.38;;
13793;SDS011;31160;49.500;7.772;2022-12-18T00:11:13;26.52;;;12.93;;
13793;SDS011;31160;49.500;7.772;2022-12-18T00:13:42;28.52;;;12.25;;
13793;SDS011;31160;49.500;7.772;2022-12-18T00:16:10;27.10;;;13.25;;
13793;SDS011;31160;49.500;7.772;2022-12-18T00:18:39;28.10;;;13.02;;
13793;SDS011;31160;49.500;7.772;2022-12-18T00:21:07;27.52;;;12.43;;
13793;SDS011;31160;49.500;7.772;2022-12-18T00:23:36;24.27;;;11.90;;
13793;SDS011;31160;49.500;7.772;2022-12-18T00:26:06;29.67;;;13.93;;
13793;SDS011;31160;49.500;7.772;2022-12-18T00:28:41;26.02;;;12.70;;
13793;SDS011;31160;49.500;7.772;2022-12-18T00:31:19;32.42;;;14.75;;
13793;SDS011;31160;49.500;7.772;2022-12-18T00:33:47;24.95;;;11.10;;
13793;SDS011;31160;49.500;7.772;2022-12-18T00:36:20;27.52;;;12.45;;
13793;SDS011;31160;49.500;7.772;2022-12-18T00:38:51;26.02;;;11.75;;
13793;SDS011;31160;49.500;7.772;2022-12-18T00:41:18;26.85;;;12.82;;
13793;SDS011;31160;49.500;7.772;2022-12-18T00:44:05;25.27;;;12.43;;
13793;SDS011;31160;49.500;7.772;2022-12-18T00:46:33;26.23;;;12.35;;
13793;SDS011;31160;49.500;7.772;2022-12-18T00:49:00;27.13;;;11.93;;
13793;SDS011;31160;49.500;7.772;2022-12-18T00:51:27;25.83;;;13.30;;
13793;SDS011;31160;49.500;7.772;2022-12-18T00:53:54;24.88;;;12.48;;
13793;SDS011;31160;49.500;7.772;2022-12-18T00:56:21;24.83;;;11.52;;
13793;SDS011;31160;49.500;7.772;2022-12-18T00:58:48;25.70;;;12.57;;
13793;SDS011;31160;49.500;7.772;2022-12-18T01:01:16;23.23;;;12.07;;
13793;SDS011;31160;49.500;7.772;2022-12-18T01:03:43;35.47;;;12.77;;
13793;SDS011;31160;49.500;7.772;2022-12-18T01:06:13;30.73;;;13.10;;
13793;SDS011;31160;49.500;7.772;2022-12-18T01:08:41;23.50;;;11.43;;
13793;SDS011;31160;49.500;7.772;2022-12-18T01:11:12;22.88;;;11.68;;
13793;SDS011;31160;49.500;7.772;2022-12-18T01:13:41;30.67;;;14.15;;
13793;SDS011;31160;49.500;7.772;2022-12-18T01:16:08;26.33;;;13.32;;
13793;SDS011;31160;49.500;7.772;2022-12-18T01:18:38;25.27;;;12.25;;
13793;SDS011;31160;49.500;7.772;2022-12-18T01:21:08;29.02;;;13.38;;
13793;SDS011;31160;49.500;7.772;2022-12-18T01:23:37;26.88;;;12.90;;
13793;SDS011;31160;49.500;7.772;2022-12-18T01:26:08;28.10;;;14.10;;
13793;SDS011;31160;49.500;7.772;2022-12-18T01:28:42;28.13;;;12.93;;
13793;SDS011;31160;49.500;7.772;2022-12-18T01:31:17;24.25;;;11.80;;
13793;SDS011;31160;49.500;7.772;2022-12-18T01:33:46;27.10;;;12.40;;
13793;SDS011;31160;49.500;7.772;2022-12-18T01:39:07;26.13;;;12.25;;
13793;SDS011;31160;49.500;7.772;2022-12-18T01:41:36;29.98;;;13.90;;
13793;SDS011;31160;49.500;7.772;2022-12-18T01:49:50;28.45;;;13.52;;
13793;SDS011;31160;49.500;7.772;2022-12-18T01:52:17;28.63;;;12.75;;
13793;SDS011;31160;49.500;7.772;2022-12-18T01:54:44;30.52;;;13.50;;
13793;SDS011;31160;49.500;7.772;2022-12-18T01:57:12;28.45;;;12.98;;
13793;SDS011;31160;49.500;7.772;2022-12-18T01:59:39;29.73;;;12.63;;
13793;SDS011;31160;49.500;7.772;2022-12-18T02:02:08;27.90;;;12.80;;
13793;SDS011;31160;49.500;7.772;2022-12-18T02:04:35;24.83;;;13.02;;
13793;SDS011;31160;49.500;7.772;2022-12-18T02:12:45;32.50;;;13.73;;
13793;SDS011;31160;49.500;7.772;2022-12-18T02:25:58;26.70;;;13.02;;
13793;SDS011;31160;49.500;7.772;2022-12-18T02:29:04;29.92;;;13.52;;
13793;SDS011;31160;49.500;7.772;2022-12-18T02:31:43;31.42;;;14.07;;
13793;SDS011;31160;49.500;7.772;2022-12-18T02:34:13;27.48;;;14.68;;
13793;SDS011;31160;49.500;7.772;2022-12-18T02:36:41;31.83;;;14.55;;
13793;SDS011;31160;49.500;7.772;2022-12-18T02:39:12;29.40;;;14.10;;
13793;SDS011;31160;49.500;7.772;2022-12-18T02:41:53;34.38;;;14.73;;
13793;SDS011;31160;49.500;7.772;2022-12-18T02:44:22;30.45;;;13.13;;
13793;SDS011;31160;49.500;7.772;2022-12-18T02:46:50;30.45;;;12.90;;
13793;SDS011;31160;49.500;7.772;2022-12-18T02:49:34;25.45;;;13.70;;
13793;SDS011;31160;49.500;7.772;2022-12-18T02:52:32;31.52;;;14.05;;
13793;SDS011;31160;49.500;7.772;2022-12-18T03:00:31;27.27;;;12.85;;
13793;SDS011;31160;49.500;7.772;2022-12-18T03:05:50;28.10;;;13.98;;
13793;SDS011;31160;49.500;7.772;2022-12-18T03:08:29;32.08;;;15.07;;
13793;SDS011;31160;49.500;7.772;2022-12-18T03:11:10;34.60;;;14.77;;
13793;SDS011;31160;49.500;7.772;2022-12-18T03:16:08;37.72;;;14.25;;
13793;SDS011;31160;49.500;7.772;2022-12-18T03:18:39;35.13;;;15.88;;
13793;SDS011;31160;49.500;7.772;2022-12-18T03:21:07;36.17;;;16.40;;
13793;SDS011;31160;49.500;7.772;2022-12-18T03:23:40;33.15;;;14.45;;
13793;SDS011;31160;49.500;7.772;2022-12-18T03:26:12;31.42;;;14.38;;
13793;SDS011;31160;49.500;7.772;2022-12-18T03:28:45;31.50;;;14.57;;
13793;SDS011;31160;49.500;7.772;2022-12-18T03:31:18;31.95;;;14.95;;
13793;SDS011;31160;49.500;7.772;2022-12-18T03:33:57;30.42;;;14.60;;
13793;SDS011;31160;49.500;7.772;2022-12-18T03:36:36;32.92;;;14.95;;
13793;SDS011;31160;49.500;7.772;2022-12-18T03:39:03;29.45;;;14.70;;
13793;SDS011;31160;49.500;7.772;2022-12-18T03:41:39;29.25;;;14.05;;
13793;SDS011;31160;49.500;7.772;2022-12-18T03:50:04;33.60;;;15.38;;
13793;SDS011;31160;49.500;7.772;2022-12-18T03:52:41;31.70;;;14.40;;
13793;SDS011;31160;49.500;7.772;2022-12-18T03:55:14;35.58;;;14.75;;
13793;SDS011;31160;49.500;7.772;2022-12-18T03:57:45;32.22;;;14.23;;
13793;SDS011;31160;49.500;7.772;2022-12-18T04:00:13;35.83;;;14.77;;
13793;SDS011;31160;49.500;7.772;2022-12-18T04:02:55;34.33;;;15.43;;
13793;SDS011;31160;49.500;7.772;2022-12-18T04:05:31;31.98;;;13.93;;
13793;SDS011;31160;49.500;7.772;2022-12-18T04:08:01;32.20;;;15.40;;
13793;SDS011;31160;49.500;7.772;2022-12-18T04:10:31;34.35;;;14.80;;
13793;SDS011;31160;49.500;7.772;2022-12-18T04:13:01;30.45;;;13.05;;
13793;SDS011;31160;49.500;7.772;2022-12-18T04:15:28;29.17;;;13.68;;
13793;SDS011;31160;49.500;7.772;2022-12-18T04:17:57;33.63;;;14.15;;
13793;SDS011;31160;49.500;7.772;2022-12-18T04:20:30;34.38;;;15.52;;
13793;SDS011;31160;49.500;7.772;2022-12-18T04:22:57;33.67;;;14.70;;
13793;SDS011;31160;49.500;7.772;2022-12-18T04:25:24;31.83;;;14.73;;
13793;SDS011;31160;49.500;7.772;2022-12-18T04:28:04;34.55;;;15.45;;
13793;SDS011;31160;49.500;7.772;2022-12-18T04:30:32;39.95;;;17.10;;
13793;SDS011;31160;49.500;7.772;2022-12-18T04:32:59;30.60;;;13.70;;
13793;SDS011;31160;49.500;7.772;2022-12-18T04:35:27;34.25;;;14.82;;
13793;SDS011;31160;49.500;7.772;2022-12-18T04:37:54;36.40;;;14.60;;
13793;SDS011;31160;49.500;7.772;2022-12-18T04:40:21;30.85;;;14.68;;
13793;SDS011;31160;49.500;7.772;2022-12-18T04:42:48;32.13;;;13.88;;
13793;SDS011;31160;49.500;7.772;2022-12-18T04:45:15;38.78;;;14.93;;
13793;SDS011;31160;49.500;7.772;2022-12-18T04:47:42;30.48;;;14.00;;
13793;SDS011;31160;49.500;7.772;2022-12-18T04:50:09;30.38;;;13.77;;
13793;SDS011;31160;49.500;7.772;2022-12-18T04:52:35;28.80;;;12.60;;
13793;SDS011;31160;49.500;7.772;2022-12-18T04:55:02;33.80;;;14.00;;
13793;SDS011;31160;49.500;7.772;2022-12-18T04:57:29;32.90;;;14.70;;
13793;SDS011;31160;49.500;7.772;2022-12-18T04:59:56;30.95;;;14.05;;
13793;SDS011;31160;49.500;7.772;2022-12-18T05:02:22;28.52;;;13.27;;
13793;SDS011;31160;49.500;7.772;2022-12-18T05:04:49;35.75;;;14.68;;
13793;SDS011;31160;49.500;7.772;2022-12-18T05:07:16;33.92;;;13.65;;
13793;SDS011;31160;49.500;7.772;2022-12-18T05:09:43;26.80;;;12.98;;
13793;SDS011;31160;49.500;7.772;2022-12-18T05:12:10;30.20;;;13.20;;
13793;SDS011;31160;49.500;7.772;2022-12-18T05:14:37;28.08;;;13.25;;
13793;SDS011;31160;49.500;7.772;2022-12-18T05:17:03;27.10;;;13.13;;
13793;SDS011;31160;49.500;7.772;2022-12-18T05:19:30;30.20;;;12.73;;
13793;SDS011;31160;49.500;7.772;2022-12-18T05:21:57;27.98;;;13.82;;
13793;SDS011;31160;49.500;7.772;2022-12-18T05:24:24;32.00;;;13.75;;
13793;SDS011;31160;49.500;7.772;2022-12-18T05:26:50;31.13;;;12.63;;
13793;SDS011;31160;49.500;7.772;2022-12-18T05:29:17;30.45;;;13.75;;
13793;SDS011;31160;49.500;7.772;2022-12-18T05:31:44;32.42;;;13.45;;
13793;SDS011;31160;49.500;7.772;2022-12-18T05:34:11;35.72;;;14.18;;
13793;SDS011;31160;49.500;7.772;2022-12-18T05:36:38;31.27;;;13.40;;
13793;SDS011;31160;49.500;7.772;2022-12-18T05:39:04;25.88;;;12.48;;
13793;SDS011;31160;49.500;7.772;2022-12-18T05:41:32;29.38;;;12.60;;
13793;SDS011;31160;49.500;7.772;2022-12-18T05:43:59;26.75;;;12.38;;
13793;SDS011;31160;49.500;7.772;2022-12-18T05:46:26;27.67;;;12.63;;
13793;SDS011;31160;49.500;7.772;2022-12-18T05:48:53;32.75;;;13.10;;
13793;SDS011;31160;49.500;7.772;2022-12-18T05:51:20;29.95;;;13.00;;
13793;SDS011;31160;49.500;7.772;2022-12-18T05:53:48;29.45;;;12.63;;
13793;SDS011;31160;49.500;7.772;2022-12-18T05:56:17;32.75;;;13.55;;
13793;SDS011;31160;49.500;7.772;2022-12-18T05:58:46;27.52;;;13.63;;
13793;SDS011;31160;49.500;7.772;2022-12-18T06:01:14;29.38;;;12.30;;
13793;SDS011;31160;49.500;7.772;2022-12-18T06:03:49;30.90;;;13.48;;
13793;SDS011;31160;49.500;7.772;2022-12-18T06:06:17;23.58;;;12.23;;
13793;SDS011;31160;49.500;7.772;2022-12-18T06:08:46;22.15;;;11.05;;
13793;SDS011;31160;49.500;7.772;2022-12-18T06:11:15;27.50;;;12.65;;
13793;SDS011;31160;49.500;7.772;2022-12-18T06:13:43;25.63;;;11.85;;
13793;SDS011;31160;49.500;7.772;2022-12-18T06:16:10;25.73;;;12.40;;
13793;SDS011;31160;49.500;7.772;2022-12-18T06:18:37;27.85;;;12.60;;
13793;SDS011;31160;49.500;7.772;2022-12-18T06:21:04;29.88;;;13.30;;
13793;SDS011;31160;49.500;7.772;2022-12-18T06:23:31;28.42;;;12.77;;
13793;SDS011;31160;49.500;7.772;2022-12-18T06:25:58;31.50;;;13.15;;
13793;SDS011;31160;49.500;7.772;2022-12-18T06:28:29;30.92;;;12.20;;
13793;SDS011;31160;49.500;7.772;2022-12-18T06:30:55;28.92;;;12.52;;
13793;SDS011;31160;49.500;7.772;2022-12-18T06:33:25;28.23;;;13.48;;
13793;SDS011;31160;49.500;7.772;2022-12-18T06:35:53;26.17;;;12.65;;
13793;SDS011;31160;49.500;7.772;2022-12-18T06:38:26;25.52;;;12.45;;
13793;SDS011;31160;49.500;7.772;2022-12-18T06:40:53;26.20;;;12.35;;
13793;SDS011;31160;49.500;7.772;2022-12-18T06:43:20;27.17;;;12.23;;
13793;SDS011;31160;49.500;7.772;2022-12-18T06:45:46;28.40;;;12.93;;
13793;SDS011;31160;49.500;7.772;2022-12-18T06:48:19;27.98;;;12.48;;
13793;SDS011;31160;49.500;7.772;2022-12-18T06:50:46;27.40;;;12.38;;
13793;SDS011;31160;49.500;7.772;2022-12-18T06:53:12;28.27;;;12.73;;
13793;SDS011;31160;49.500;7.772;2022-12-18T06:55:40;29.45;;;12.82;;
13793;SDS011;31160;49.500;7.772;2022-12-18T06:58:07;26.75;;;12.65;;
13793;SDS011;31160;49.500;7.772;2022-12-18T07:00:35;27.45;;;11.90;;
13793;SDS011;31160;49.500;7.772;2022-12-18T07:03:02;29.52;;;13.43;;
13793;SDS011;31160;49.500;7.772;2022-12-18T07:05:29;26.55;;;13.13;;
13793;SDS011;31160;49.500;7.772;2022-12-18T07:07:56;27.65;;;12.35;;
13793;SDS011;31160;49.500;7.772;2022-12-18T07:10:23;26.55;;;11.50;;
13793;SDS011;31160;49.500;7.772;2022-12-18T07:12:50;27.85;;;12.32;;
13793;SDS011;31160;49.500;7.772;2022-12-18T07:15:17;31.63;;;13.10;;
13793;SDS011;31160;49.500;7.772;2022-12-18T07:17:43;33.20;;;13.57;;
13793;SDS011;31160;49.500;7.772;2022-12-18T07:20:10;31.75;;;13.40;;
13793;SDS011;31160;49.500;7.772;2022-12-18T07:22:37;33.25;;;13.52;;
13793;SDS011;31160;49.500;7.772;2022-12-18T07:25:04;26.85;;;12.48;;
13793;SDS011;31160;49.500;7.772;2022-12-18T07:27:31;28.80;;;13.05;;
13793;SDS011;31160;49.500;7.772;2022-12-18T07:29:58;29.30;;;12.82;;
13793;SDS011;31160;49.500;7.772;2022-12-18T07:32:24;30.98;;;12.02;;
13793;SDS011;31160;49.500;7.772;2022-12-18T07:34:51;29.63;;;12.60;;
13793;SDS011;31160;49.500;7.772;2022-12-18T07:37:18;30.33;;;13.50;;
13793;SDS011;31160;49.500;7.772;2022-12-18T07:39:44;27.50;;;12.70;;
13793;SDS011;31160;49.500;7.772;2022-12-18T07:42:14;27.95;;;13.90;;
13793;SDS011;31160;49.500;7.772;2022-12-18T07:44:59;28.00;;;12.95;;
13793;SDS011;31160;49.500;7.772;2022-12-18T07:47:27;33.42;;;14.98;;
13793;SDS011;31160;49.500;7.772;2022-12-18T07:49:54;35.42;;;15.70;;
13793;SDS011;31160;49.500;7.772;2022-12-18T07:52:21;33.53;;;16.05;;
13793;SDS011;31160;49.500;7.772;2022-12-18T07:54:51;35.10;;;15.50;;
13793;SDS011;31160;49.500;7.772;2022-12-18T07:57:18;34.28;;;16.05;;
13793;SDS011;31160;49.500;7.772;2022-12-18T08:00:05;34.17;;;15.93;;
13793;SDS011;31160;49.500;7.772;2022-12-18T08:02:37;33.17;;;16.77;;
13793;SDS011;31160;49.500;7.772;2022-12-18T08:05:04;36.72;;;17.05;;
13793;SDS011;31160;49.500;7.772;2022-12-18T08:07:32;36.35;;;17.90;;
13793;SDS011;31160;49.500;7.772;2022-12-18T08:09:59;40.05;;;17.73;;
13793;SDS011;31160;49.500;7.772;2022-12-18T08:12:25;38.25;;;16.67;;
13793;SDS011;31160;49.500;7.772;2022-12-18T08:14:52;34.78;;;17.48;;
13793;SDS011;31160;49.500;7.772;2022-12-18T08:17:19;37.33;;;17.90;;
13793;SDS011;31160;49.500;7.772;2022-12-18T08:19:46;40.47;;;17.98;;
13793;SDS011;31160;49.500;7.772;2022-12-18T08:22:13;37.78;;;18.17;;
13793;SDS011;31160;49.500;7.772;2022-12-18T08:24:39;34.00;;;15.82;;
13793;SDS011;31160;49.500;7.772;2022-12-18T08:27:06;43.80;;;17.00;;
13793;SDS011;31160;49.500;7.772;2022-12-18T08:29:53;34.28;;;16.63;;
13793;SDS011;31160;49.500;7.772;2022-12-18T08:32:19;30.92;;;14.63;;
13793;SDS011;31160;49.500;7.772;2022-12-18T08:34:46;34.92;;;15.65;;
13793;SDS011;31160;49.500;7.772;2022-12-18T08:37:13;31.63;;;15.40;;
13793;SDS011;31160;49.500;7.772;2022-12-18T08:39:40;31.33;;;14.88;;
13793;SDS011;31160;49.500;7.772;2022-12-18T08:42:06;35.22;;;14.98;;
13793;SDS011;31160;49.500;7.772;2022-12-18T08:44:52;39.85;;;16.45;;
13793;SDS011;31160;49.500;7.772;2022-12-18T08:47:19;36.90;;;15.82;;
13793;SDS011;31160;49.500;7.772;2022-12-18T08:49:45;34.75;;;16.13;;
13793;SDS011;31160;49.500;7.772;2022-12-18T08:52:12;37.10;;;17.35;;
13793;SDS011;31160;49.500;7.772;2022-12-18T08:54:39;36.38;;;17.55;;
13793;SDS011;31160;49.500;7.772;2022-12-18T08:57:05;35.45;;;18.23;;
13793;SDS011;31160;49.500;7.772;2022-12-18T08:59:32;45.67;;;21.35;;
13793;SDS011;31160;49.500;7.772;2022-12-18T09:01:59;41.15;;;19.90;;
13793;SDS011;31160;49.500;7.772;2022-12-18T09:04:26;36.92;;;17.88;;
13793;SDS011;31160;49.500;7.772;2022-12-18T09:06:53;41.15;;;19.05;;
13793;SDS011;31160;49.500;7.772;2022-12-18T09:09:21;37.42;;;18.00;;
13793;SDS011;31160;49.500;7.772;2022-12-18T09:11:48;43.40;;;19.88;;
13793;SDS011;31160;49.500;7.772;2022-12-18T09:14:15;38.20;;;18.15;;
13793;SDS011;31160;49.500;7.772;2022-12-18T09:16:41;39.10;;;18.63;;
13793;SDS011;31160;49.500;7.772;2022-12-18T09:19:12;42.67;;;20.65;;
13793;SDS011;31160;49.500;7.772;2022-12-18T09:21:39;45.97;;;20.88;;
13793;SDS011;31160;49.500;7.772;2022-12-18T09:24:13;43.00;;;19.08;;
13793;SDS011;31160;49.500;7.772;2022-12-18T09:26:40;43.95;;;20.30;;
13793;SDS011;31160;49.500;7.772;2022-12-18T09:29:08;51.80;;;23.40;;
13793;SDS011;31160;49.500;7.772;2022-12-18T09:31:35;50.47;;;22.05;;
13793;SDS011;31160;49.500;7.772;2022-12-18T09:34:04;40.05;;;19.77;;
13793;SDS011;31160;49.500;7.772;2022-12-18T09:36:31;40.28;;;19.20;;
13793;SDS011;31160;49.500;7.772;2022-12-18T09:38:57;40.17;;;19.92;;
13793;SDS011;31160;49.500;7.772;2022-12-18T09:41:33;38.10;;;18.55;;
13793;SDS011;31160;49.500;7.772;2022-12-18T09:47:01;36.92;;;18.10;;
13793;SDS011;31160;49.500;7.772;2022-12-18T09:49:29;38.88;;;18.55;;
13793;SDS011;31160;49.500;7.772;2022-12-18T09:54:38;36.53;;;17.80;;
13793;SDS011;31160;49.500;7.772;2022-12-18T09:57:06;38.42;;;18.42;;
13793;SDS011;31160;49.500;7.772;2022-12-18T09:59:41;39.60;;;19.25;;
13793;SDS011;31160;49.500;7.772;2022-12-18T10:02:12;40.38;;;19.38;;
13793;SDS011;31160;49.500;7.772;2022-12-18T10:04:46;42.45;;;20.88;;
13793;SDS011;31160;49.500;7.772;2022-12-18T10:10:16;38.40;;;19.15;;
13793;SDS011;31160;49.500;7.772;2022-12-18T10:18:38;37.92;;;19.38;;
13793;SDS011;31160;49.500;7.772;2022-12-18T10:21:14;36.67;;;18.52;;
13793;SDS011;31160;49.500;7.772;2022-12-18T10:26:55;44.45;;;20.90;;
13793;SDS011;31160;49.500;7.772;2022-12-18T10:29:36;50.53;;;21.42;;
13793;SDS011;31160;49.500;7.772;2022-12-18T10:32:04;37.65;;;19.95;;
13793;SDS011;31160;49.500;7.772;2022-12-18T10:34:30;44.78;;;20.85;;
13793;SDS011;31160;49.500;7.772;2022-12-18T10:36:57;58.13;;;24.17;;
13793;SDS011;31160;49.500;7.772;2022-12-18T10:39:30;40.58;;;19.95;;
13793;SDS011;31160;49.500;7.772;2022-12-18T10:44:44;37.80;;;19.25;;
13793;SDS011;31160;49.500;7.772;2022-12-18T10:47:12;36.60;;;18.95;;
13793;SDS011;31160;49.500;7.772;2022-12-18T10:49:42;33.42;;;19.20;;
13793;SDS011;31160;49.500;7.772;2022-12-18T10:54:54;38.92;;;18.85;;
13793;SDS011;31160;49.500;7.772;2022-12-18T10:57:32;38.05;;;18.85;;
13793;SDS011;31160;49.500;7.772;2022-12-18T11:02:54;44.00;;;20.83;;
13793;SDS011;31160;49.500;7.772;2022-12-18T11:05:24;33.83;;;18.02;;
13793;SDS011;31160;49.500;7.772;2022-12-18T11:07:59;47.90;;;20.75;;
13793;SDS011;31160;49.500;7.772;2022-12-18T11:10:30;31.45;;;17.17;;
13793;SDS011;31160;49.500;7.772;2022-12-18T11:13:22;41.97;;;19.90;;
13793;SDS011;31160;49.500;7.772;2022-12-18T11:15:50;38.00;;;20.83;;
13793;SDS011;31160;49.500;7.772;2022-12-18T11:23:34;37.17;;;19.58;;
13793;SDS011;31160;49.500;7.772;2022-12-18T11:26:03;33.70;;;18.00;;
13793;SDS011;31160;49.500;7.772;2022-12-18T11:28:37;33.60;;;17.63;;
13793;SDS011;31160;49.500;7.772;2022-12-18T11:33:56;38.90;;;20.42;;
13793;SDS011;31160;49.500;7.772;2022-12-18T11:36:48;33.00;;;17.27;;
13793;SDS011;31160;49.500;7.772;2022-12-18T11:39:19;31.83;;;17.65;;
13793;SDS011;31160;49.500;7.772;2022-12-18T11:41:57;31.45;;;17.30;;
13793;SDS011;31160;49.500;7.772;2022-12-18T11:44:41;35.28;;;18.55;;
13793;SDS011;31160;49.500;7.772;2022-12-18T11:50:16;35.22;;;17.50;;
13793;SDS011;31160;49.500;7.772;2022-12-18T11:52:50;38.25;;;19.48;;
13793;SDS011;31160;49.500;7.772;2022-12-18T11:55:27;36.78;;;18.48;;
13793;SDS011;31160;49.500;7.772;2022-12-18T11:58:28;36.40;;;19.33;;
13793;SDS011;31160;49.500;7.772;2022-12-18T12:01:47;39.03;;;21.88;;
13793;SDS011;31160;49.500;7.772;2022-12-18T12:09:59;54.50;;;25.07;;
13793;SDS011;31160;49.500;7.772;2022-12-18T12:12:49;64.90;;;25.57;;
13793;SDS011;31160;49.500;7.772;2022-12-18T12:21:32;49.90;;;20.08;;
13793;SDS011;31160;49.500;7.772;2022-12-18T12:35:09;36.67;;;18.37;;
13793;SDS011;31160;49.500;7.772;2022-12-18T12:37:59;48.97;;;25.97;;
13793;SDS011;31160;49.500;7.772;2022-12-18T12:41:03;51.50;;;25.57;;
13793;SDS011;31160;49.500;7.772;2022-12-18T12:46:16;39.37;;;19.50;;
13793;SDS011;31160;49.500;7.772;2022-12-18T12:48:49;46.97;;;20.97;;
13793;SDS011;31160;49.500;7.772;2022-12-18T12:51:26;53.47;;;20.77;;
13793;SDS011;31160;49.500;7.772;2022-12-18T12:53:56;38.60;;;18.80;;
13793;SDS011;31160;49.500;7.772;2022-12-18T12:56:24;43.17;;;20.10;;
13793;SDS011;31160;49.500;7.772;2022-12-18T12:59:26;55.27;;;25.20;;
13793;SDS011;31160;49.500;7.772;2022-12-18T13:02:18;35.80;;;18.77;;
13793;SDS011;31160;49.500;7.772;2022-12-18T13:11:00;42.77;;;20.70;;
13793;SDS011;31160;49.500;7.772;2022-12-18T13:13:55;39.93;;;22.27;;
13793;SDS011;31160;49.500;7.772;2022-12-18T13:16:23;33.73;;;18.80;;
13793;SDS011;31160;49.500;7.772;2022-12-18T13:18:54;34.37;;;18.80;;
13793;SDS011;31160;49.500;7.772;2022-12-18T13:23:55;41.43;;;21.40;;
13793;SDS011;31160;49.500;7.772;2022-12-18T13:28:55;40.67;;;20.97;;
13793;SDS011;31160;49.500;7.772;2022-12-18T13:36:54;34.00;;;18.60;;
13793;SDS011;31160;49.500;7.772;2022-12-18T13:39:32;35.57;;;19.10;;
13793;SDS011;31160;49.500;7.772;2022-12-18T13:44:34;63.40;;;25.30;;
13793;SDS011;31160;49.500;7.772;2022-12-18T13:50:43;36.33;;;20.07;;
13793;SDS011;31160;49.500;7.772;2022-12-18T13:52:57;39.63;;;19.83;;
13793;SDS011;31160;49.500;7.772;2022-12-18T13:55:24;36.60;;;19.30;;
13793;SDS011;31160;49.500;7.772;2022-12-18T13:58:02;38.13;;;19.93;;
13793;SDS011;31160;49.500;7.772;2022-12-18T14:00:30;42.43;;;20.37;;
13793;SDS011;31160;49.500;7.772;2022-12-18T14:02:57;38.40;;;21.30;;
13793;SDS011;31160;49.500;7.772;2022-12-18T14:05:28;47.10;;;22.90;;
13793;SDS011;31160;49.500;7.772;2022-12-18T14:07:59;41.07;;;20.63;;
13793;SDS011;31160;49.500;7.772;2022-12-18T14:10:41;45.00;;;25.67;;
13793;SDS011;31160;49.500;7.772;2022-12-18T14:13:16;40.60;;;21.27;;
13793;SDS011;31160;49.500;7.772;2022-12-18T14:15:53;39.43;;;19.73;;
13793;SDS011;31160;49.500;7.772;2022-12-18T14:20:54;47.23;;;23.80;;
13793;SDS011;31160;49.500;7.772;2022-12-18T14:23:25;42.83;;;23.70;;
13793;SDS011;31160;49.500;7.772;2022-12-18T14:25:53;45.78;;;21.73;;
13793;SDS011;31160;49.500;7.772;2022-12-18T14:28:19;36.77;;;20.27;;
13793;SDS011;31160;49.500;7.772;2022-12-18T14:30:48;51.67;;;25.58;;
13793;SDS011;31160;49.500;7.772;2022-12-18T14:33:16;39.80;;;20.17;;
13793;SDS011;31160;49.500;7.772;2022-12-18T14:35:55;44.07;;;24.40;;
13793;SDS011;31160;49.500;7.772;2022-12-18T14:38:29;64.57;;;28.05;;
13793;SDS011;31160;49.500;7.772;2022-12-18T14:41:01;44.15;;;21.95;;
13793;SDS011;31160;49.500;7.772;2022-12-18T14:43:37;34.67;;;19.38;;
13793;SDS011;31160;49.500;7.772;2022-12-18T14:48:59;44.25;;;21.15;;
13793;SDS011;31160;49.500;7.772;2022-12-18T14:51:29;38.28;;;20.20;;
13793;SDS011;31160;49.500;7.772;2022-12-18T14:53:58;35.90;;;20.52;;
13793;SDS011;31160;49.500;7.772;2022-12-18T14:56:31;41.43;;;20.83;;
13793;SDS011;31160;49.500;7.772;2022-12-18T14:59:01;49.10;;;23.27;;
13793;SDS011;31160;49.500;7.772;2022-12-18T15:01:45;48.07;;;23.57;;
13793;SDS011;31160;49.500;7.772;2022-12-18T15:04:31;71.00;;;32.77;;
13793;SDS011;31160;49.500;7.772;2022-12-18T15:07:04;40.37;;;21.57;;
13793;SDS011;31160;49.500;7.772;2022-12-18T15:09:38;42.22;;;21.45;;
13793;SDS011;31160;49.500;7.772;2022-12-18T15:12:19;42.90;;;21.55;;
13793;SDS011;31160;49.500;7.772;2022-12-18T15:14:52;37.90;;;19.88;;
13793;SDS011;31160;49.500;7.772;2022-12-18T15:17:21;45.00;;;22.80;;
13793;SDS011;31160;49.500;7.772;2022-12-18T15:19:52;39.42;;;21.13;;
13793;SDS011;31160;49.500;7.772;2022-12-18T15:22:33;41.55;;;20.00;;
13793;SDS011;31160;49.500;7.772;2022-12-18T15:25:02;39.70;;;19.13;;
13793;SDS011;31160;49.500;7.772;2022-12-18T15:27:42;47.40;;;22.17;;
13793;SDS011;31160;49.500;7.772;2022-12-18T15:32:50;44.92;;;23.00;;
13793;SDS011;31160;49.500;7.772;2022-12-18T15:35:20;43.33;;;22.87;;
13793;SDS011;31160;49.500;7.772;2022-12-18T15:37:51;47.40;;;22.05;;
13793;SDS011;31160;49.500;7.772;2022-12-18T15:40:19;48.92;;;23.38;;
13793;SDS011;31160;49.500;7.772;2022-12-18T15:42:48;46.25;;;23.55;;
13793;SDS011;31160;49.500;7.772;2022-12-18T15:45:37;49.00;;;25.83;;
13793;SDS011;31160;49.500;7.772;2022-12-18T15:48:11;49.15;;;22.23;;
13793;SDS011;31160;49.500;7.772;2022-12-18T15:50:49;41.55;;;22.17;;
13793;SDS011;31160;49.500;7.772;2022-12-18T15:53:18;38.50;;;20.55;;
13793;SDS011;31160;49.500;7.772;2022-12-18T15:55:45;43.33;;;21.70;;
13793;SDS011;31160;49.500;7.772;2022-12-18T15:58:31;42.23;;;20.37;;
13793;SDS011;31160;49.500;7.772;2022-12-18T16:00:59;46.40;;;23.27;;
13793;SDS011;31160;49.500;7.772;2022-12-18T16:03:27;41.73;;;22.23;;
13793;SDS011;31160;49.500;7.772;2022-12-18T16:05:53;40.63;;;21.45;;
13793;SDS011;31160;49.500;7.772;2022-12-18T16:08:22;43.37;;;21.60;;
13793;SDS011;31160;49.500;7.772;2022-12-18T16:10:48;48.53;;;22.97;;
13793;SDS011;31160;49.500;7.772;2022-12-18T16:13:15;43.73;;;22.03;;
13793;SDS011;31160;49.500;7.772;2022-12-18T16:15:45;47.63;;;22.50;;
13793;SDS011;31160;49.500;7.772;2022-12-18T16:18:12;44.20;;;21.83;;
13793;SDS011;31160;49.500;7.772;2022-12-18T16:20:39;36.67;;;18.80;;
13793;SDS011;31160;49.500;7.772;2022-12-18T16:23:06;38.53;;;19.43;;
13793;SDS011;31160;49.500;7.772;2022-12-18T16:25:33;38.40;;;18.70;;
13793;SDS011;31160;49.500;7.772;2022-12-18T16:28:00;36.07;;;18.93;;
13793;SDS011;31160;49.500;7.772;2022-12-18T16:30:28;40.80;;;20.48;;
13793;SDS011;31160;49.500;7.772;2022-12-18T16:33:04;41.17;;;20.08;;
13793;SDS011;31160;49.500;7.772;2022-12-18T16:35:33;36.50;;;19.63;;
13793;SDS011;31160;49.500;7.772;2022-12-18T16:37:59;42.90;;;20.23;;
13793;SDS011;31160;49.500;7.772;2022-12-18T16:40:26;43.50;;;19.92;;
13793;SDS011;31160;49.500;7.772;2022-12-18T16:42:53;39.53;;;19.57;;
13793;SDS011;31160;49.500;7.772;2022-12-18T16:45:20;42.13;;;20.33;;
13793;SDS011;31160;49.500;7.772;2022-12-18T16:47:46;37.93;;;19.47;;
13793;SDS011;31160;49.500;7.772;2022-12-18T16:50:13;48.33;;;21.80;;
13793;SDS011;31160;49.500;7.772;2022-12-18T16:52:40;39.57;;;20.43;;
13793;SDS011;31160;49.500;7.772;2022-12-18T16:55:07;44.45;;;21.52;;
13793;SDS011;31160;49.500;7.772;2022-12-18T16:57:34;37.00;;;19.03;;